sensor_id;sensor_type;location;lat;lon;timestamp;P1;durP1;ratioP1;P2;durP2;ratioP2
11548;SDS011;61444;59.472;18.306;2024-03-08T00:00:19;8.60;;;3.50;;
11548;SDS011;61444;59.472;18.306;2024-03-08T00:02:28;5.80;;;3.20;;
11548;SDS011;61444;59.472;18.306;2024-03-08T00:04:37;6.47;;;2.97;;
11548;SDS011;61444;59.472;18.306;2024-03-08T00:06:45;6.43;;;3.90;;
11548;SDS011;61444;59.472;18.306;2024-03-08T00:08:54;7.13;;;3.70;;
11548;SDS011;61444;59.472;18.306;2024-03-08T00:11:04;6.80;;;3.37;;
11548;SDS011;61444;59.472;18.306;2024-03-08T00:13:18;7.80;;;2.77;;
11548;SDS011;61444;59.472;18.306;2024-03-08T00:15:27;7.47;;;3.27;;
11548;SDS011;61444;59.472;18.306;2024-03-08T00:17:36;7.97;;;3.87;;
11548;SDS011;61444;59.472;18.306;2024-03-08T00:19:44;8.53;;;4.50;;
11548;SDS011;61444;59.472;18.306;2024-03-08T00:21:53;5.40;;;3.40;;
11548;SDS011;61444;59.472;18.306;2024-03-08T00:24:02;14.20;;;4.23;;
11548;SDS011;61444;59.472;18.306;2024-03-08T00:26:12;6.10;;;3.50;;
11548;SDS011;61444;59.472;18.306;2024-03-08T00:28:21;11.03;;;3.40;;
11548;SDS011;61444;59.472;18.306;2024-03-08T00:30:31;6.60;;;3.70;;
11548;SDS011;61444;59.472;18.306;2024-03-08T00:32:39;7.47;;;4.00;;
11548;SDS011;61444;59.472;18.306;2024-03-08T00:34:50;8.20;;;3.63;;
11548;SDS011;61444;59.472;18.306;2024-03-08T00:36:59;6.97;;;3.30;;
11548;SDS011;61444;59.472;18.306;2024-03-08T00:39:07;8.10;;;3.40;;
11548;SDS011;61444;59.472;18.306;2024-03-08T00:41:17;8.40;;;3.30;;
11548;SDS011;61444;59.472;18.306;2024-03-08T00:43:28;5.23;;;2.83;;
11548;SDS011;61444;59.472;18.306;2024-03-08T00:45:37;11.87;;;3.13;;
11548;SDS011;61444;59.472;18.306;2024-03-08T00:47:49;9.00;;;3.00;;
11548;SDS011;61444;59.472;18.306;2024-03-08T00:49:58;6.00;;;2.90;;
11548;SDS011;61444;59.472;18.306;2024-03-08T00:52:06;5.17;;;2.83;;
11548;SDS011;61444;59.472;18.306;2024-03-08T00:54:14;6.10;;;2.80;;
11548;SDS011;61444;59.472;18.306;2024-03-08T00:56:25;5.67;;;2.97;;
11548;SDS011;61444;59.472;18.306;2024-03-08T00:58:34;7.73;;;3.40;;
11548;SDS011;61444;59.472;18.306;2024-03-08T01:00:42;6.63;;;3.03;;
11548;SDS011;61444;59.472;18.306;2024-03-08T01:02:51;5.90;;;3.33;;
11548;SDS011;61444;59.472;18.306;2024-03-08T01:05:00;10.60;;;3.30;;
11548;SDS011;61444;59.472;18.306;2024-03-08T01:07:08;6.63;;;3.17;;
11548;SDS011;61444;59.472;18.306;2024-03-08T01:09:19;5.77;;;3.10;;
11548;SDS011;61444;59.472;18.306;2024-03-08T01:11:29;4.50;;;2.93;;
11548;SDS011;61444;59.472;18.306;2024-03-08T01:13:44;5.10;;;3.30;;
11548;SDS011;61444;59.472;18.306;2024-03-08T01:15:54;5.10;;;3.07;;
11548;SDS011;61444;59.472;18.306;2024-03-08T01:18:04;3.97;;;2.77;;
11548;SDS011;61444;59.472;18.306;2024-03-08T01:20:13;6.80;;;3.20;;
11548;SDS011;61444;59.472;18.306;2024-03-08T01:22:21;6.63;;;2.80;;
11548;SDS011;61444;59.472;18.306;2024-03-08T01:24:30;3.97;;;2.50;;
11548;SDS011;61444;59.472;18.306;2024-03-08T01:26:41;4.10;;;2.80;;
11548;SDS011;61444;59.472;18.306;2024-03-08T01:28:49;5.30;;;3.17;;
11548;SDS011;61444;59.472;18.306;2024-03-08T01:30:58;5.53;;;2.93;;
11548;SDS011;61444;59.472;18.306;2024-03-08T01:33:07;6.03;;;2.80;;
11548;SDS011;61444;59.472;18.306;2024-03-08T01:35:15;5.33;;;2.70;;
11548;SDS011;61444;59.472;18.306;2024-03-08T01:37:24;5.30;;;2.93;;
11548;SDS011;61444;59.472;18.306;2024-03-08T01:39:36;5.07;;;2.97;;
11548;SDS011;61444;59.472;18.306;2024-03-08T01:41:46;5.43;;;2.93;;
11548;SDS011;61444;59.472;18.306;2024-03-08T01:43:55;5.23;;;2.93;;
11548;SDS011;61444;59.472;18.306;2024-03-08T01:46:03;6.20;;;2.90;;
11548;SDS011;61444;59.472;18.306;2024-03-08T01:48:13;6.97;;;2.70;;
11548;SDS011;61444;59.472;18.306;2024-03-08T01:50:23;6.00;;;2.87;;
11548;SDS011;61444;59.472;18.306;2024-03-08T01:52:31;6.80;;;3.00;;
11548;SDS011;61444;59.472;18.306;2024-03-08T01:54:40;4.83;;;2.60;;
11548;SDS011;61444;59.472;18.306;2024-03-08T01:56:50;4.27;;;2.50;;
11548;SDS011;61444;59.472;18.306;2024-03-08T01:58:59;3.63;;;2.50;;
11548;SDS011;61444;59.472;18.306;2024-03-08T02:01:08;3.13;;;2.33;;
11548;SDS011;61444;59.472;18.306;2024-03-08T02:03:21;4.50;;;2.70;;
11548;SDS011;61444;59.472;18.306;2024-03-08T02:05:30;5.40;;;2.70;;
11548;SDS011;61444;59.472;18.306;2024-03-08T02:07:40;3.50;;;2.37;;
11548;SDS011;61444;59.472;18.306;2024-03-08T02:09:54;5.43;;;2.70;;
11548;SDS011;61444;59.472;18.306;2024-03-08T02:12:05;4.67;;;2.70;;
11548;SDS011;61444;59.472;18.306;2024-03-08T02:14:14;6.63;;;2.60;;
11548;SDS011;61444;59.472;18.306;2024-03-08T02:16:23;4.43;;;2.37;;
11548;SDS011;61444;59.472;18.306;2024-03-08T02:18:31;3.77;;;2.53;;
11548;SDS011;61444;59.472;18.306;2024-03-08T02:20:43;4.80;;;2.60;;
11548;SDS011;61444;59.472;18.306;2024-03-08T02:22:54;4.73;;;2.70;;
11548;SDS011;61444;59.472;18.306;2024-03-08T02:25:03;4.90;;;2.63;;
11548;SDS011;61444;59.472;18.306;2024-03-08T02:27:15;6.63;;;2.50;;
11548;SDS011;61444;59.472;18.306;2024-03-08T02:29:31;4.27;;;2.37;;
11548;SDS011;61444;59.472;18.306;2024-03-08T02:31:41;7.10;;;2.40;;
11548;SDS011;61444;59.472;18.306;2024-03-08T02:33:50;5.80;;;2.50;;
11548;SDS011;61444;59.472;18.306;2024-03-08T02:36:00;7.07;;;2.70;;
11548;SDS011;61444;59.472;18.306;2024-03-08T02:38:13;5.90;;;2.50;;
11548;SDS011;61444;59.472;18.306;2024-03-08T02:40:23;5.23;;;2.97;;
11548;SDS011;61444;59.472;18.306;2024-03-08T02:42:32;4.43;;;2.50;;
11548;SDS011;61444;59.472;18.306;2024-03-08T02:44:42;6.77;;;2.73;;
11548;SDS011;61444;59.472;18.306;2024-03-08T02:46:51;9.67;;;2.70;;
11548;SDS011;61444;59.472;18.306;2024-03-08T02:49:01;4.20;;;2.50;;
11548;SDS011;61444;59.472;18.306;2024-03-08T02:51:11;5.77;;;2.63;;
11548;SDS011;61444;59.472;18.306;2024-03-08T02:53:20;3.50;;;2.43;;
11548;SDS011;61444;59.472;18.306;2024-03-08T02:55:31;5.27;;;2.30;;
11548;SDS011;61444;59.472;18.306;2024-03-08T02:57:42;4.80;;;2.63;;
11548;SDS011;61444;59.472;18.306;2024-03-08T02:59:53;4.70;;;2.43;;
11548;SDS011;61444;59.472;18.306;2024-03-08T03:02:02;3.97;;;2.47;;
11548;SDS011;61444;59.472;18.306;2024-03-08T03:04:10;3.70;;;2.10;;
11548;SDS011;61444;59.472;18.306;2024-03-08T03:06:22;4.70;;;2.10;;
11548;SDS011;61444;59.472;18.306;2024-03-08T03:08:32;3.90;;;2.40;;
11548;SDS011;61444;59.472;18.306;2024-03-08T03:10:41;4.60;;;2.50;;
11548;SDS011;61444;59.472;18.306;2024-03-08T03:12:49;4.97;;;2.30;;
11548;SDS011;61444;59.472;18.306;2024-03-08T03:14:59;6.83;;;2.60;;
11548;SDS011;61444;59.472;18.306;2024-03-08T03:17:08;5.07;;;2.43;;
11548;SDS011;61444;59.472;18.306;2024-03-08T03:19:16;5.53;;;2.30;;
11548;SDS011;61444;59.472;18.306;2024-03-08T03:21:27;6.07;;;2.63;;
11548;SDS011;61444;59.472;18.306;2024-03-08T03:23:39;5.13;;;2.43;;
11548;SDS011;61444;59.472;18.306;2024-03-08T03:25:48;4.17;;;2.67;;
11548;SDS011;61444;59.472;18.306;2024-03-08T03:28:03;4.63;;;2.37;;
11548;SDS011;61444;59.472;18.306;2024-03-08T03:30:14;4.73;;;2.50;;
11548;SDS011;61444;59.472;18.306;2024-03-08T03:32:29;5.63;;;2.30;;
11548;SDS011;61444;59.472;18.306;2024-03-08T03:34:37;5.37;;;2.50;;
11548;SDS011;61444;59.472;18.306;2024-03-08T03:36:47;4.13;;;1.90;;
11548;SDS011;61444;59.472;18.306;2024-03-08T03:38:56;2.60;;;1.73;;
11548;SDS011;61444;59.472;18.306;2024-03-08T03:41:13;2.87;;;1.87;;
11548;SDS011;61444;59.472;18.306;2024-03-08T03:43:22;4.20;;;1.70;;
11548;SDS011;61444;59.472;18.306;2024-03-08T03:45:31;3.17;;;1.77;;
11548;SDS011;61444;59.472;18.306;2024-03-08T03:47:43;2.90;;;1.93;;
11548;SDS011;61444;59.472;18.306;2024-03-08T03:49:52;4.70;;;1.70;;
11548;SDS011;61444;59.472;18.306;2024-03-08T03:52:02;4.33;;;1.90;;
11548;SDS011;61444;59.472;18.306;2024-03-08T03:54:11;2.50;;;1.70;;
11548;SDS011;61444;59.472;18.306;2024-03-08T03:56:24;3.00;;;1.80;;
11548;SDS011;61444;59.472;18.306;2024-03-08T03:58:33;4.20;;;1.63;;
11548;SDS011;61444;59.472;18.306;2024-03-08T04:00:41;3.23;;;1.73;;
11548;SDS011;61444;59.472;18.306;2024-03-08T04:02:50;4.97;;;1.80;;
11548;SDS011;61444;59.472;18.306;2024-03-08T04:04:59;3.80;;;1.93;;
11548;SDS011;61444;59.472;18.306;2024-03-08T04:07:09;4.10;;;2.00;;
11548;SDS011;61444;59.472;18.306;2024-03-08T04:09:17;4.63;;;1.70;;
11548;SDS011;61444;59.472;18.306;2024-03-08T04:11:31;5.20;;;2.00;;
11548;SDS011;61444;59.472;18.306;2024-03-08T04:13:42;3.10;;;1.67;;
11548;SDS011;61444;59.472;18.306;2024-03-08T04:15:50;3.53;;;1.73;;
11548;SDS011;61444;59.472;18.306;2024-03-08T04:17:59;3.63;;;1.90;;
11548;SDS011;61444;59.472;18.306;2024-03-08T04:20:09;2.77;;;1.90;;
11548;SDS011;61444;59.472;18.306;2024-03-08T04:22:18;6.53;;;2.30;;
11548;SDS011;61444;59.472;18.306;2024-03-08T04:24:27;2.83;;;1.63;;
11548;SDS011;61444;59.472;18.306;2024-03-08T04:26:37;3.67;;;1.93;;
11548;SDS011;61444;59.472;18.306;2024-03-08T04:28:50;3.00;;;1.90;;
11548;SDS011;61444;59.472;18.306;2024-03-08T04:30:59;4.00;;;1.83;;
11548;SDS011;61444;59.472;18.306;2024-03-08T04:33:08;4.13;;;2.00;;
11548;SDS011;61444;59.472;18.306;2024-03-08T04:35:16;6.00;;;1.67;;
11548;SDS011;61444;59.472;18.306;2024-03-08T04:37:28;3.03;;;1.83;;
11548;SDS011;61444;59.472;18.306;2024-03-08T04:39:38;3.87;;;1.93;;
11548;SDS011;61444;59.472;18.306;2024-03-08T04:41:47;3.97;;;2.00;;
11548;SDS011;61444;59.472;18.306;2024-03-08T04:43:55;3.77;;;1.93;;
11548;SDS011;61444;59.472;18.306;2024-03-08T04:46:05;7.53;;;2.33;;
11548;SDS011;61444;59.472;18.306;2024-03-08T04:48:13;13.93;;;2.20;;
11548;SDS011;61444;59.472;18.306;2024-03-08T04:50:22;4.50;;;1.90;;
11548;SDS011;61444;59.472;18.306;2024-03-08T04:52:32;8.37;;;2.77;;
11548;SDS011;61444;59.472;18.306;2024-03-08T04:54:41;3.80;;;2.07;;
11548;SDS011;61444;59.472;18.306;2024-03-08T04:56:49;5.47;;;1.90;;
11548;SDS011;61444;59.472;18.306;2024-03-08T04:58:58;5.67;;;2.00;;
11548;SDS011;61444;59.472;18.306;2024-03-08T05:01:06;10.20;;;2.60;;
11548;SDS011;61444;59.472;18.306;2024-03-08T05:03:17;3.70;;;2.13;;
11548;SDS011;61444;59.472;18.306;2024-03-08T05:05:25;4.80;;;2.27;;
11548;SDS011;61444;59.472;18.306;2024-03-08T05:07:37;9.97;;;2.37;;
11548;SDS011;61444;59.472;18.306;2024-03-08T05:09:45;3.03;;;1.93;;
11548;SDS011;61444;59.472;18.306;2024-03-08T05:11:58;10.63;;;2.43;;
11548;SDS011;61444;59.472;18.306;2024-03-08T05:14:08;5.50;;;2.07;;
11548;SDS011;61444;59.472;18.306;2024-03-08T05:16:17;7.10;;;2.10;;
11548;SDS011;61444;59.472;18.306;2024-03-08T05:18:25;12.77;;;2.43;;
11548;SDS011;61444;59.472;18.306;2024-03-08T05:20:35;5.80;;;1.90;;
11548;SDS011;61444;59.472;18.306;2024-03-08T05:22:47;5.13;;;2.20;;
11548;SDS011;61444;59.472;18.306;2024-03-08T05:24:57;7.40;;;2.20;;
11548;SDS011;61444;59.472;18.306;2024-03-08T05:27:05;4.73;;;1.90;;
11548;SDS011;61444;59.472;18.306;2024-03-08T05:29:13;3.83;;;1.90;;
11548;SDS011;61444;59.472;18.306;2024-03-08T05:31:22;5.47;;;1.93;;
11548;SDS011;61444;59.472;18.306;2024-03-08T05:33:30;3.53;;;1.83;;
11548;SDS011;61444;59.472;18.306;2024-03-08T05:35:41;4.17;;;2.17;;
11548;SDS011;61444;59.472;18.306;2024-03-08T05:37:51;5.47;;;2.50;;
11548;SDS011;61444;59.472;18.306;2024-03-08T05:39:59;3.60;;;2.20;;
11548;SDS011;61444;59.472;18.306;2024-03-08T05:42:08;6.03;;;2.40;;
11548;SDS011;61444;59.472;18.306;2024-03-08T05:44:17;3.13;;;2.00;;
11548;SDS011;61444;59.472;18.306;2024-03-08T05:46:25;3.87;;;2.43;;
11548;SDS011;61444;59.472;18.306;2024-03-08T05:48:34;2.63;;;1.77;;
11548;SDS011;61444;59.472;18.306;2024-03-08T05:50:43;4.50;;;2.13;;
11548;SDS011;61444;59.472;18.306;2024-03-08T05:52:53;3.13;;;2.30;;
11548;SDS011;61444;59.472;18.306;2024-03-08T05:55:04;3.90;;;2.47;;
11548;SDS011;61444;59.472;18.306;2024-03-08T05:57:14;5.40;;;1.90;;
11548;SDS011;61444;59.472;18.306;2024-03-08T05:59:23;3.70;;;2.13;;
11548;SDS011;61444;59.472;18.306;2024-03-08T06:01:32;4.17;;;2.57;;
11548;SDS011;61444;59.472;18.306;2024-03-08T06:03:42;6.57;;;2.40;;
11548;SDS011;61444;59.472;18.306;2024-03-08T06:05:51;5.57;;;2.40;;
11548;SDS011;61444;59.472;18.306;2024-03-08T06:08:03;3.17;;;2.03;;
11548;SDS011;61444;59.472;18.306;2024-03-08T06:10:14;4.20;;;2.30;;
11548;SDS011;61444;59.472;18.306;2024-03-08T06:12:24;5.90;;;2.50;;
11548;SDS011;61444;59.472;18.306;2024-03-08T06:14:35;12.57;;;3.07;;
11548;SDS011;61444;59.472;18.306;2024-03-08T06:16:43;10.80;;;2.30;;
11548;SDS011;61444;59.472;18.306;2024-03-08T06:18:52;12.07;;;2.60;;
11548;SDS011;61444;59.472;18.306;2024-03-08T06:21:02;9.73;;;3.10;;
11548;SDS011;61444;59.472;18.306;2024-03-08T06:23:13;7.73;;;3.00;;
11548;SDS011;61444;59.472;18.306;2024-03-08T06:25:24;6.07;;;2.63;;
11548;SDS011;61444;59.472;18.306;2024-03-08T06:27:33;10.07;;;2.80;;
11548;SDS011;61444;59.472;18.306;2024-03-08T06:29:41;16.87;;;3.60;;
11548;SDS011;61444;59.472;18.306;2024-03-08T06:31:50;10.73;;;3.30;;
11548;SDS011;61444;59.472;18.306;2024-03-08T06:34:02;5.80;;;2.70;;
11548;SDS011;61444;59.472;18.306;2024-03-08T06:36:15;9.07;;;2.90;;
11548;SDS011;61444;59.472;18.306;2024-03-08T06:38:26;7.23;;;2.83;;
11548;SDS011;61444;59.472;18.306;2024-03-08T06:40:37;6.97;;;2.60;;
11548;SDS011;61444;59.472;18.306;2024-03-08T06:42:46;8.10;;;2.30;;
11548;SDS011;61444;59.472;18.306;2024-03-08T06:44:55;5.67;;;2.40;;
11548;SDS011;61444;59.472;18.306;2024-03-08T06:47:10;14.83;;;2.80;;
11548;SDS011;61444;59.472;18.306;2024-03-08T06:49:19;4.63;;;2.57;;
11548;SDS011;61444;59.472;18.306;2024-03-08T06:51:28;6.00;;;2.73;;
11548;SDS011;61444;59.472;18.306;2024-03-08T06:53:38;8.80;;;2.70;;
11548;SDS011;61444;59.472;18.306;2024-03-08T06:55:50;20.33;;;3.13;;
11548;SDS011;61444;59.472;18.306;2024-03-08T06:57:59;5.17;;;2.80;;
11548;SDS011;61444;59.472;18.306;2024-03-08T07:00:08;6.80;;;2.70;;
11548;SDS011;61444;59.472;18.306;2024-03-08T07:02:16;9.00;;;2.67;;
11548;SDS011;61444;59.472;18.306;2024-03-08T07:04:25;10.73;;;2.53;;
11548;SDS011;61444;59.472;18.306;2024-03-08T07:06:36;4.07;;;2.50;;
11548;SDS011;61444;59.472;18.306;2024-03-08T07:08:49;6.03;;;2.60;;
11548;SDS011;61444;59.472;18.306;2024-03-08T07:10:58;6.53;;;2.60;;
11548;SDS011;61444;59.472;18.306;2024-03-08T07:13:06;8.20;;;2.70;;
11548;SDS011;61444;59.472;18.306;2024-03-08T07:15:17;5.13;;;2.30;;
11548;SDS011;61444;59.472;18.306;2024-03-08T07:17:30;5.70;;;2.73;;
11548;SDS011;61444;59.472;18.306;2024-03-08T07:19:41;4.70;;;3.00;;
11548;SDS011;61444;59.472;18.306;2024-03-08T07:21:49;5.80;;;2.20;;
11548;SDS011;61444;59.472;18.306;2024-03-08T07:23:59;5.23;;;2.27;;
11548;SDS011;61444;59.472;18.306;2024-03-08T07:26:27;5.73;;;2.73;;
11548;SDS011;61444;59.472;18.306;2024-03-08T07:28:35;7.80;;;2.90;;
11548;SDS011;61444;59.472;18.306;2024-03-08T07:30:43;7.57;;;2.73;;
11548;SDS011;61444;59.472;18.306;2024-03-08T07:33:09;5.03;;;2.20;;
11548;SDS011;61444;59.472;18.306;2024-03-08T07:35:19;3.77;;;2.20;;
11548;SDS011;61444;59.472;18.306;2024-03-08T07:37:28;7.47;;;2.80;;
11548;SDS011;61444;59.472;18.306;2024-03-08T07:39:38;7.53;;;2.90;;
11548;SDS011;61444;59.472;18.306;2024-03-08T07:41:47;3.57;;;2.20;;
11548;SDS011;61444;59.472;18.306;2024-03-08T07:43:59;5.67;;;2.60;;
11548;SDS011;61444;59.472;18.306;2024-03-08T07:46:10;7.13;;;2.90;;
11548;SDS011;61444;59.472;18.306;2024-03-08T07:48:19;7.90;;;2.43;;
11548;SDS011;61444;59.472;18.306;2024-03-08T07:50:28;5.40;;;2.80;;
11548;SDS011;61444;59.472;18.306;2024-03-08T07:52:39;5.17;;;2.60;;
11548;SDS011;61444;59.472;18.306;2024-03-08T07:54:50;6.27;;;2.70;;
11548;SDS011;61444;59.472;18.306;2024-03-08T07:56:58;4.53;;;2.70;;
11548;SDS011;61444;59.472;18.306;2024-03-08T07:59:11;5.67;;;2.87;;
11548;SDS011;61444;59.472;18.306;2024-03-08T08:01:19;5.97;;;2.90;;
11548;SDS011;61444;59.472;18.306;2024-03-08T08:03:28;7.30;;;3.60;;
11548;SDS011;61444;59.472;18.306;2024-03-08T08:05:37;4.70;;;3.10;;
11548;SDS011;61444;59.472;18.306;2024-03-08T08:07:46;5.47;;;2.00;;
11548;SDS011;61444;59.472;18.306;2024-03-08T08:09:59;5.47;;;2.70;;
11548;SDS011;61444;59.472;18.306;2024-03-08T08:12:08;5.77;;;2.77;;
11548;SDS011;61444;59.472;18.306;2024-03-08T08:14:18;7.60;;;2.90;;
11548;SDS011;61444;59.472;18.306;2024-03-08T08:16:27;10.17;;;2.83;;
11548;SDS011;61444;59.472;18.306;2024-03-08T08:18:36;3.20;;;2.37;;
11548;SDS011;61444;59.472;18.306;2024-03-08T08:20:45;5.67;;;2.83;;
11548;SDS011;61444;59.472;18.306;2024-03-08T08:22:54;4.07;;;2.07;;
11548;SDS011;61444;59.472;18.306;2024-03-08T08:25:04;3.83;;;2.70;;
11548;SDS011;61444;59.472;18.306;2024-03-08T08:27:13;3.07;;;2.00;;
11548;SDS011;61444;59.472;18.306;2024-03-08T08:29:20;5.53;;;2.50;;
11548;SDS011;61444;59.472;18.306;2024-03-08T08:31:29;6.67;;;2.23;;
11548;SDS011;61444;59.472;18.306;2024-03-08T08:33:38;6.50;;;2.57;;
11548;SDS011;61444;59.472;18.306;2024-03-08T08:35:46;3.90;;;2.10;;
11548;SDS011;61444;59.472;18.306;2024-03-08T08:37:58;4.00;;;2.20;;
11548;SDS011;61444;59.472;18.306;2024-03-08T08:40:07;3.73;;;2.20;;
11548;SDS011;61444;59.472;18.306;2024-03-08T08:42:21;3.70;;;2.07;;
11548;SDS011;61444;59.472;18.306;2024-03-08T08:44:30;2.97;;;1.83;;
11548;SDS011;61444;59.472;18.306;2024-03-08T08:46:38;4.97;;;2.33;;
11548;SDS011;61444;59.472;18.306;2024-03-08T08:48:48;2.73;;;1.83;;
11548;SDS011;61444;59.472;18.306;2024-03-08T08:50:57;4.03;;;2.43;;
11548;SDS011;61444;59.472;18.306;2024-03-08T08:53:07;3.83;;;2.10;;
11548;SDS011;61444;59.472;18.306;2024-03-08T08:55:18;4.90;;;2.17;;
11548;SDS011;61444;59.472;18.306;2024-03-08T08:57:32;4.43;;;2.30;;
11548;SDS011;61444;59.472;18.306;2024-03-08T08:59:42;3.03;;;2.03;;
11548;SDS011;61444;59.472;18.306;2024-03-08T09:01:52;5.60;;;2.40;;
11548;SDS011;61444;59.472;18.306;2024-03-08T09:04:04;6.33;;;1.83;;
11548;SDS011;61444;59.472;18.306;2024-03-08T09:06:14;4.27;;;1.97;;
11548;SDS011;61444;59.472;18.306;2024-03-08T09:08:23;4.50;;;2.00;;
11548;SDS011;61444;59.472;18.306;2024-03-08T09:10:36;3.00;;;1.70;;
11548;SDS011;61444;59.472;18.306;2024-03-08T09:12:46;2.63;;;2.10;;
11548;SDS011;61444;59.472;18.306;2024-03-08T09:14:53;5.33;;;2.13;;
11548;SDS011;61444;59.472;18.306;2024-03-08T09:17:02;3.70;;;1.90;;
11548;SDS011;61444;59.472;18.306;2024-03-08T09:19:10;3.07;;;2.00;;
11548;SDS011;61444;59.472;18.306;2024-03-08T09:21:19;3.97;;;2.20;;
11548;SDS011;61444;59.472;18.306;2024-03-08T09:23:29;7.30;;;2.40;;
11548;SDS011;61444;59.472;18.306;2024-03-08T09:25:40;4.37;;;2.57;;
11548;SDS011;61444;59.472;18.306;2024-03-08T09:27:49;6.53;;;2.80;;
11548;SDS011;61444;59.472;18.306;2024-03-08T09:30:01;4.77;;;2.23;;
11548;SDS011;61444;59.472;18.306;2024-03-08T09:32:09;4.67;;;2.17;;
11548;SDS011;61444;59.472;18.306;2024-03-08T09:34:18;5.07;;;2.37;;
11548;SDS011;61444;59.472;18.306;2024-03-08T09:36:34;3.97;;;2.20;;
11548;SDS011;61444;59.472;18.306;2024-03-08T09:38:44;4.00;;;2.10;;
11548;SDS011;61444;59.472;18.306;2024-03-08T09:40:55;6.00;;;2.20;;
11548;SDS011;61444;59.472;18.306;2024-03-08T09:43:05;3.93;;;1.77;;
11548;SDS011;61444;59.472;18.306;2024-03-08T09:45:14;3.13;;;1.70;;
11548;SDS011;61444;59.472;18.306;2024-03-08T09:47:24;5.33;;;1.77;;
11548;SDS011;61444;59.472;18.306;2024-03-08T09:49:35;3.67;;;1.70;;
11548;SDS011;61444;59.472;18.306;2024-03-08T09:51:44;3.50;;;1.57;;
11548;SDS011;61444;59.472;18.306;2024-03-08T09:53:53;5.57;;;2.33;;
11548;SDS011;61444;59.472;18.306;2024-03-08T09:56:03;3.10;;;1.50;;
11548;SDS011;61444;59.472;18.306;2024-03-08T09:58:12;2.77;;;1.60;;
11548;SDS011;61444;59.472;18.306;2024-03-08T10:00:37;2.87;;;1.40;;
11548;SDS011;61444;59.472;18.306;2024-03-08T10:02:45;5.90;;;1.80;;
11548;SDS011;61444;59.472;18.306;2024-03-08T10:04:54;2.30;;;1.57;;
11548;SDS011;61444;59.472;18.306;2024-03-08T10:07:05;4.23;;;2.00;;
11548;SDS011;61444;59.472;18.306;2024-03-08T10:09:18;5.17;;;1.97;;
11548;SDS011;61444;59.472;18.306;2024-03-08T10:11:29;1.87;;;1.30;;
11548;SDS011;61444;59.472;18.306;2024-03-08T10:13:39;2.57;;;1.50;;
11548;SDS011;61444;59.472;18.306;2024-03-08T10:15:48;4.23;;;1.60;;
11548;SDS011;61444;59.472;18.306;2024-03-08T10:17:58;5.73;;;1.90;;
11548;SDS011;61444;59.472;18.306;2024-03-08T10:20:13;2.30;;;1.60;;
11548;SDS011;61444;59.472;18.306;2024-03-08T10:22:22;2.60;;;1.70;;
11548;SDS011;61444;59.472;18.306;2024-03-08T10:24:31;4.53;;;1.73;;
11548;SDS011;61444;59.472;18.306;2024-03-08T10:26:41;3.30;;;1.63;;
11548;SDS011;61444;59.472;18.306;2024-03-08T10:28:53;3.20;;;1.40;;
11548;SDS011;61444;59.472;18.306;2024-03-08T10:31:02;4.53;;;1.77;;
11548;SDS011;61444;59.472;18.306;2024-03-08T10:33:15;3.13;;;1.73;;
11548;SDS011;61444;59.472;18.306;2024-03-08T10:35:24;5.33;;;2.07;;
11548;SDS011;61444;59.472;18.306;2024-03-08T10:37:33;3.13;;;1.53;;
11548;SDS011;61444;59.472;18.306;2024-03-08T10:39:49;2.40;;;1.40;;
11548;SDS011;61444;59.472;18.306;2024-03-08T10:42:04;2.23;;;1.57;;
11548;SDS011;61444;59.472;18.306;2024-03-08T10:44:15;10.57;;;1.97;;
11548;SDS011;61444;59.472;18.306;2024-03-08T10:46:29;3.00;;;1.70;;
11548;SDS011;61444;59.472;18.306;2024-03-08T10:48:40;5.37;;;1.80;;
11548;SDS011;61444;59.472;18.306;2024-03-08T10:50:49;2.43;;;1.70;;
11548;SDS011;61444;59.472;18.306;2024-03-08T10:52:59;3.23;;;1.87;;
11548;SDS011;61444;59.472;18.306;2024-03-08T10:55:09;3.20;;;1.67;;
11548;SDS011;61444;59.472;18.306;2024-03-08T10:57:21;7.97;;;1.70;;
11548;SDS011;61444;59.472;18.306;2024-03-08T10:59:31;3.13;;;1.80;;
11548;SDS011;61444;59.472;18.306;2024-03-08T11:01:40;4.83;;;1.60;;
11548;SDS011;61444;59.472;18.306;2024-03-08T11:03:49;3.03;;;1.60;;
11548;SDS011;61444;59.472;18.306;2024-03-08T11:06:00;7.03;;;2.00;;
11548;SDS011;61444;59.472;18.306;2024-03-08T11:08:16;11.23;;;1.67;;
11548;SDS011;61444;59.472;18.306;2024-03-08T11:10:29;5.17;;;1.80;;
11548;SDS011;61444;59.472;18.306;2024-03-08T11:12:39;6.20;;;1.50;;
11548;SDS011;61444;59.472;18.306;2024-03-08T11:14:49;2.97;;;1.60;;
11548;SDS011;61444;59.472;18.306;2024-03-08T11:16:57;4.07;;;1.87;;
11548;SDS011;61444;59.472;18.306;2024-03-08T11:19:22;3.57;;;1.60;;
11548;SDS011;61444;59.472;18.306;2024-03-08T11:21:31;3.83;;;1.53;;
11548;SDS011;61444;59.472;18.306;2024-03-08T11:23:40;4.10;;;1.70;;
11548;SDS011;61444;59.472;18.306;2024-03-08T11:25:49;2.93;;;1.67;;
11548;SDS011;61444;59.472;18.306;2024-03-08T11:28:11;2.80;;;1.90;;
11548;SDS011;61444;59.472;18.306;2024-03-08T11:30:27;1.83;;;1.27;;
11548;SDS011;61444;59.472;18.306;2024-03-08T11:32:36;4.47;;;1.87;;
11548;SDS011;61444;59.472;18.306;2024-03-08T11:34:47;4.30;;;1.87;;
11548;SDS011;61444;59.472;18.306;2024-03-08T11:36:56;2.97;;;1.83;;
11548;SDS011;61444;59.472;18.306;2024-03-08T11:39:05;3.77;;;1.57;;
11548;SDS011;61444;59.472;18.306;2024-03-08T11:41:21;3.00;;;1.70;;
11548;SDS011;61444;59.472;18.306;2024-03-08T11:43:31;2.90;;;1.53;;
11548;SDS011;61444;59.472;18.306;2024-03-08T11:45:40;2.93;;;1.90;;
11548;SDS011;61444;59.472;18.306;2024-03-08T11:47:48;2.83;;;1.93;;
11548;SDS011;61444;59.472;18.306;2024-03-08T11:50:00;4.73;;;1.73;;
11548;SDS011;61444;59.472;18.306;2024-03-08T11:52:10;4.30;;;1.57;;
11548;SDS011;61444;59.472;18.306;2024-03-08T11:54:20;5.00;;;1.97;;
11548;SDS011;61444;59.472;18.306;2024-03-08T11:56:29;3.67;;;1.73;;
11548;SDS011;61444;59.472;18.306;2024-03-08T11:58:40;7.43;;;1.73;;
11548;SDS011;61444;59.472;18.306;2024-03-08T12:00:49;3.33;;;1.60;;
11548;SDS011;61444;59.472;18.306;2024-03-08T12:03:04;2.97;;;1.50;;
11548;SDS011;61444;59.472;18.306;2024-03-08T12:05:17;3.27;;;1.40;;
11548;SDS011;61444;59.472;18.306;2024-03-08T12:07:31;3.20;;;1.67;;
11548;SDS011;61444;59.472;18.306;2024-03-08T12:09:40;3.10;;;1.87;;
11548;SDS011;61444;59.472;18.306;2024-03-08T12:11:52;4.83;;;1.80;;
11548;SDS011;61444;59.472;18.306;2024-03-08T12:14:02;4.37;;;1.90;;
11548;SDS011;61444;59.472;18.306;2024-03-08T12:16:12;2.23;;;1.70;;
11548;SDS011;61444;59.472;18.306;2024-03-08T12:18:21;4.03;;;1.73;;
11548;SDS011;61444;59.472;18.306;2024-03-08T12:20:30;3.50;;;1.90;;
11548;SDS011;61444;59.472;18.306;2024-03-08T12:22:42;4.10;;;1.60;;
11548;SDS011;61444;59.472;18.306;2024-03-08T12:25:02;2.73;;;1.57;;
11548;SDS011;61444;59.472;18.306;2024-03-08T12:27:17;2.80;;;1.77;;
11548;SDS011;61444;59.472;18.306;2024-03-08T12:29:27;2.93;;;1.67;;
11548;SDS011;61444;59.472;18.306;2024-03-08T12:31:36;5.60;;;1.53;;
11548;SDS011;61444;59.472;18.306;2024-03-08T12:33:48;3.43;;;1.70;;
11548;SDS011;61444;59.472;18.306;2024-03-08T12:36:01;5.33;;;1.80;;
11548;SDS011;61444;59.472;18.306;2024-03-08T12:38:13;5.00;;;1.83;;
11548;SDS011;61444;59.472;18.306;2024-03-08T12:40:25;3.47;;;1.90;;
11548;SDS011;61444;59.472;18.306;2024-03-08T12:42:35;4.67;;;1.80;;
11548;SDS011;61444;59.472;18.306;2024-03-08T12:44:46;2.77;;;1.67;;
11548;SDS011;61444;59.472;18.306;2024-03-08T12:46:54;3.90;;;1.67;;
11548;SDS011;61444;59.472;18.306;2024-03-08T12:49:07;5.00;;;2.50;;
11548;SDS011;61444;59.472;18.306;2024-03-08T12:51:17;6.17;;;1.70;;